Flight Track Log - Related Links

Times and Time Zones

All times are in EDT time to prevent confusion due to time zone crossing. See the EJA922 flight status page for this flight to view local times or setup timezone preferences in your user account.

Time Position Orientation Groundspeed Altitude Reporting Facility
EDT Latitude Longitude Course Direction KTS MPH feet Rate Location/Type
Thu 01:51:38 PM 39.5667 -119.7833 30° Northeast 228 262 7,600  Level Northern Cal TRACON
Thu 01:52:38 PM 39.6333 -119.7333 30° Northeast 298 343 10,200 2,351 Climbing Northern Cal TRACON
Thu 01:53:15 PM 39.6594 -119.6833 56° Northeast 316 364 11,400 2,242 Climbing Oakland Center
Thu 01:54:17 PM 39.7244 -119.5872 49° Northeast 340 391 13,900 2,371 Climbing Oakland Center
Thu 01:55:19 PM 39.7919 -119.4856 49° Northeast 360 414 16,300 2,537 Climbing Oakland Center
Thu 01:56:20 PM 39.8600 -119.3797 50° Northeast 374 430 19,100 2,390 Climbing Oakland Center
Thu 01:57:22 PM 39.9258 -119.2756 50° Northeast 372 428 21,200 1,805 Climbing Oakland Center
Thu 01:58:23 PM 39.9944 -119.1647 51° Northeast 384 442 22,800 1,463 Climbing Oakland Center
Thu 01:59:25 PM 40.0644 -119.0503 51° Northeast 398 458 24,200 1,597 Climbing Oakland Center
Thu 02:00:27 PM 40.1514 -118.9053 52° Northeast 418 481 26,100 1,561 Climbing Oakland Center
Thu 02:01:28 PM 40.2261 -118.7817 52° Northeast 429 494 27,400 1,268 Climbing Oakland Center
Thu 02:02:30 PM 40.2811 -118.6322 64° Northeast 461 531 28,700 1,238 Climbing Oakland Center
Thu 02:03:34 PM 40.3289 -118.4728 68° East 468 539 30,000 1,512 Climbing Salt Lake Center
Thu 02:04:33 PM 40.3767 -118.3097 69° East 475 547 31,800 1,488 Climbing Oakland Center
Thu 02:05:35 PM 40.4247 -118.1478 69° East 476 548 33,000 945 Climbing Oakland Center
Thu 02:06:40 PM 40.4756 -117.9725 69° East 495 570 33,800 1,220 Climbing Salt Lake Center
Thu 02:07:38 PM 40.5319 -117.7814 69° East 503 579 35,500 1,550 Climbing Oakland Center
Thu 02:08:40 PM 40.5786 -117.6175 69° East 501 577 36,900 1,453 Climbing Oakland Center
Thu 02:09:46 PM 40.6333 -117.4242 69° East 498 573 38,600 1,453 Climbing Salt Lake Center
Thu 02:10:48 PM 40.6794 -117.2625 69° East 493 567 40,000 1,161 Climbing Salt Lake Center
Thu 02:11:50 PM 40.7328 -117.0756 69° East 485 558 41,000 484 Climbing Salt Lake Center
Thu 02:12:52 PM 40.7792 -116.9086 70° East 497 572 41,000  Level Salt Lake Center
Thu 02:13:54 PM 40.8269 -116.7358 70° East 516 594 41,000  Level Salt Lake Center
Thu 02:14:56 PM 40.8833 -116.5325 70° East 524 603 41,000  Level Salt Lake Center
Thu 02:15:58 PM 40.9303 -116.3603 70° East 521 600 41,000  Level Salt Lake Center
Thu 02:17:00 PM 40.9844 -116.1550 71° East 526 605 41,000  Level Salt Lake Center
Thu 02:18:02 PM 41.0336 -115.9817 69° East 525 604 41,000  Level Salt Lake Center
Thu 02:19:04 PM 41.0881 -115.7786 70° East 523 602 41,000  Level Salt Lake Center
Thu 02:20:06 PM 41.1336 -115.6044 71° East 522 601 41,000  Level Salt Lake Center
Thu 02:21:08 PM 41.1875 -115.4011 71° East 522 601 41,000  Level Salt Lake Center
Thu 02:22:10 PM 41.2319 -115.2272 71° East 521 600 41,000  Level Salt Lake Center
Thu 02:23:12 PM 41.2769 -115.0561 71° East 515 593 41,000  Level Salt Lake Center
Thu 02:24:14 PM 41.3292 -114.8556 71° East 512 589 41,000  Level Salt Lake Center
Thu 02:25:16 PM 41.3697 -114.6919 72° East 512 589 41,000  Level Salt Lake Center
Thu 02:26:18 PM 41.4256 -114.4767 71° East 512 589 41,000  Level Salt Lake Center
Thu 02:27:21 PM 41.4714 -114.2969 71° East 513 590 41,000  Level Salt Lake Center
Thu 02:28:23 PM 41.5158 -114.1161 72° East 514 592 41,000  Level Salt Lake Center
Thu 02:29:25 PM 41.5608 -113.9356 72° East 513 590 41,000  Level Salt Lake Center
Thu 02:30:27 PM 41.6047 -113.7547 72° East 512 589 41,000  Level Salt Lake Center
Thu 02:31:29 PM 41.6497 -113.5719 72° East 517 595 41,000  Level Salt Lake Center
Thu 02:32:31 PM 41.7033 -113.3519 72° East 519 597 41,000  Level Salt Lake Center
Thu 02:33:33 PM 41.7472 -113.1681 72° East 520 598 41,000  Level Salt Lake Center
Thu 02:34:35 PM 41.7914 -112.9844 72° East 518 596 41,000  Level Salt Lake Center
Thu 02:35:37 PM 41.8356 -112.7992 72° East 520 598 41,000  Level Salt Lake Center
Thu 02:36:39 PM 41.8769 -112.6133 73° East 521 600 41,000  Level Salt Lake Center
Thu 02:37:41 PM 41.9219 -112.4261 72° East 525 604 41,000  Level Salt Lake Center
Thu 02:38:43 PM 41.9722 -112.2061 73° East 516 594 41,000  Level Salt Lake Center
Thu 02:39:45 PM 42.0136 -112.0231 73° East 513 590 41,000  Level Salt Lake Center
Thu 02:40:47 PM 42.0553 -111.8386 73° East 514 592 41,000  Level Salt Lake Center
Thu 02:41:49 PM 42.0978 -111.6536 73° East 515 593 41,000  Level Salt Lake Center
Thu 02:42:51 PM 42.1389 -111.4675 73° East 517 595 41,000  Level Salt Lake Center
Thu 02:43:53 PM 42.1794 -111.2831 73° East 516 594 41,000  Level Salt Lake Center
Thu 02:44:55 PM 42.2192 -111.0986 74° East 514 592 41,000  Level Salt Lake Center
Thu 02:45:57 PM 42.2672 -110.8789 73° East 515 593 41,000  Level Salt Lake Center
Thu 02:46:59 PM 42.3061 -110.7019 73° East 514 592 41,000  Level Salt Lake Center
Thu 02:48:01 PM 42.3494 -110.4936 74° East 516 594 41,000  Level Salt Lake Center
Thu 02:49:03 PM 42.3881 -110.3139 74° East 519 597 41,000  Level Salt Lake Center
Thu 02:50:05 PM 42.4250 -110.1336 74° East 519 597 41,000  Level Salt Lake Center
Thu 02:51:07 PM 42.4689 -109.9219 74° East 522 601 41,000  Level Salt Lake Center
Thu 02:52:09 PM 42.5061 -109.7406 74° East 522 601 41,000  Level Salt Lake Center
Thu 02:53:11 PM 42.5492 -109.5272 75° East 524 603 41,000  Level Salt Lake Center
Thu 02:54:13 PM 42.5867 -109.3453 74° East 523 602 41,000  Level Salt Lake Center
Thu 02:55:15 PM 42.6303 -109.1278 75° East 531 611 41,000  Level Salt Lake Center
Thu 02:56:17 PM 42.6669 -108.9422 75° East 532 612 41,000  Level Salt Lake Center
Thu 02:57:19 PM 42.7092 -108.7239 75° East 533 613 41,000  Level Salt Lake Center
Thu 02:58:21 PM 42.7444 -108.5378 75° East 532 612 41,000  Level Salt Lake Center
Thu 02:59:23 PM 42.7869 -108.3225 75° East 529 609 41,000  Level Salt Lake Center
Thu 03:00:25 PM 42.8217 -108.1333 76° East 534 615 41,000  Level Salt Lake Center
Thu 03:01:27 PM 42.8564 -107.9439 76° East 538 619 41,000  Level Salt Lake Center
Thu 03:02:29 PM 42.8983 -107.7231 75° East 538 619 41,000  Level Salt Lake Center
Thu 03:03:31 PM 42.9333 -107.5317 76° East 542 624 41,000  Level Salt Lake Center
Thu 03:04:33 PM 42.9703 -107.3228 76° East 544 626 41,000  Level Salt Lake Center
Thu 03:05:35 PM 43.0053 -107.1217 77° East 547 629 41,000  Level Salt Lake Center
Thu 03:06:37 PM 43.0467 -106.8992 76° East 544 626 41,000  Level Salt Lake Center
Thu 03:07:21 PM 43.0744 -106.7364 77° East 547 629 41,000  Level Denver Center
Thu 03:08:23 PM 43.1086 -106.5425 76° East 547 629 41,000  Level Denver Center
Thu 03:09:25 PM 43.1478 -106.3164 77° East 547 629 41,000  Level Denver Center
Thu 03:10:27 PM 43.1797 -106.1225 77° East 546 628 41,000  Level Denver Center
Thu 03:11:29 PM 43.2125 -105.9283 77° East 546 628 41,000  Level Denver Center
Thu 03:12:31 PM 43.2506 -105.6992 77° East 550 633 41,000  Level Denver Center
Thu 03:13:33 PM 43.2814 -105.5036 78° East 548 631 41,000  Level Denver Center
Thu 03:14:35 PM 43.3194 -105.2719 77° East 553 636 41,000  Level Denver Center
Thu 03:15:37 PM 43.3519 -105.0744 77° East 553 636 41,000  Level Denver Center
Thu 03:16:39 PM 43.3881 -104.8411 78° East 556 640 41,000  Level Denver Center
Thu 03:17:41 PM 43.4189 -104.6400 78° East 557 641 41,000  Level Denver Center
Thu 03:18:43 PM 43.4556 -104.4036 78° East 562 647 41,000  Level Denver Center
Thu 03:19:45 PM 43.4858 -104.2003 78° East 564 649 41,000  Level Denver Center
Thu 03:20:47 PM 43.5167 -103.9972 78° East 564 649 41,000  Level Denver Center
Thu 03:21:49 PM 43.5517 -103.7581 79° East 569 655 41,000  Level Denver Center
Thu 03:22:51 PM 43.5822 -103.5525 78° East 570 656 41,000  Level Denver Center
Thu 03:23:53 PM 43.6181 -103.3108 78° East 573 659 41,000  Level Denver Center
Thu 03:24:55 PM 43.6461 -103.1003 79° East 579 666 41,000  Level Denver Center
Thu 03:25:57 PM 43.6800 -102.8550 79° East 582 670 41,000  Level Denver Center
Thu 03:26:59 PM 43.7078 -102.6447 80° East 582 670 41,000  Level Denver Center
Thu 03:28:01 PM 43.7408 -102.3978 79° East 584 672 41,000  Level Denver Center
Thu 03:29:03 PM 43.7681 -102.1850 80° East 586 674 41,000  Level Denver Center
Thu 03:30:05 PM 43.7964 -101.9733 79° East 588 677 41,000  Level Denver Center
Thu 03:31:07 PM 43.8256 -101.7508 80° East 590 679 41,000  Level Denver Center
Thu 03:32:09 PM 43.8586 -101.4814 80° East 594 684 41,000  Level Denver Center
Thu 03:33:11 PM 43.8867 -101.2564 80° East 594 684 41,000  Level Denver Center
Thu 03:34:13 PM 43.9133 -101.0311 81° East 594 684 41,000  Level Denver Center
Thu 03:35:15 PM 43.9397 -100.8067 81° East 593 682 41,000  Level Denver Center
Thu 03:36:17 PM 43.9664 -100.5794 81° East 598 688 41,000  Level Denver Center
Thu 03:37:33 PM 44.0028 -100.2647 81° East 597 687 41,000  Level Minneapolis Center
Thu 03:38:35 PM 44.0283 -100.0403 81° East 594 684 41,000  Level Minneapolis Center
Thu 03:39:37 PM 44.0539 -99.8169 81° East 591 680 41,000  Level Minneapolis Center
Thu 03:40:39 PM 44.0775 -99.5917 82° East 592 681 41,000  Level Minneapolis Center
Thu 03:41:41 PM 44.1011 -99.3656 82° East 594 684 41,000  Level Minneapolis Center
Thu 03:42:43 PM 44.1297 -99.0942 82° East 594 684 41,000  Level Minneapolis Center
Thu 03:43:45 PM 44.1531 -98.8672 82° East 595 685 41,000  Level Minneapolis Center
Thu 03:44:47 PM 44.1764 -98.6456 82° East 594 684 41,000  Level Minneapolis Center
Thu 03:45:49 PM 44.1978 -98.4181 82° East 595 685 41,000  Level Minneapolis Center
Thu 03:46:51 PM 44.2194 -98.1894 82° East 596 686 41,000  Level Minneapolis Center
Thu 03:47:53 PM 44.2447 -97.9156 83° East 595 685 41,000  Level Minneapolis Center
Thu 03:48:54 PM 44.2656 -97.6853 83° East 597 687 41,000  Level Minneapolis Center
Thu 03:49:56 PM 44.2858 -97.4564 83° East 597 687 41,000  Level Minneapolis Center
Thu 03:50:58 PM 44.3053 -97.2275 83° East 595 685 41,000  Level Minneapolis Center
Thu 03:52:00 PM 44.3242 -96.9986 83° East 594 684 41,000  Level Minneapolis Center
Thu 03:53:02 PM 44.3436 -96.7689 83° East 595 685 41,000 -48 Level Minneapolis Center
Thu 03:54:04 PM 44.3633 -96.5397 83° East 593 682 40,900 -726 Descending Minneapolis Center
Thu 03:55:06 PM 44.3808 -96.3094 84° East 590 679 39,500 -1,500 Descending Minneapolis Center
Thu 03:56:08 PM 44.4003 -96.0817 83° East 581 669 37,800 -2,371 Descending Minneapolis Center
Thu 03:57:10 PM 44.4197 -95.8122 84° East 576 663 34,600 -3,000 Descending Minneapolis Center
Thu 03:58:12 PM 44.4350 -95.6028 84° East 549 632 31,600 -2,758 Descending Minneapolis Center
Thu 03:59:14 PM 44.4486 -95.4122 84° East 502 578 28,900 -2,496 Descending Minneapolis Center
Thu 04:00:17 PM 44.4600 -95.2314 85° East 471 542 26,400 -2,304 Descending Minneapolis Center
Thu 04:01:19 PM 44.4819 -95.0592 80° East 453 521 24,100 -2,226 Descending Minneapolis Center
Thu 04:02:21 PM 44.5228 -94.9022 70° East 436 502 21,800 -2,371 Descending Minneapolis Center
Thu 04:03:23 PM 44.5656 -94.7203 72° East 417 480 19,200 -2,226 Descending Minneapolis Center
Thu 04:04:25 PM 44.5950 -94.5908 72° East 400 460 17,200 -1,935 Descending Minneapolis Center
Thu 04:05:27 PM 44.6267 -94.4478 73° East 387 445 15,200 -2,177 Descending Minneapolis Center
Thu 04:06:29 PM 44.6658 -94.2783 72° East 382 440 12,700 -2,081 Descending Minneapolis Center
Thu 04:07:31 PM 44.7003 -94.1253 72° East 412 474 10,900 -968 Descending Minneapolis Center
Thu 04:08:33 PM 44.7508 -93.9892 62° Northeast 372 428 10,700 -432 Descending Minneapolis Center
Thu 04:09:36 PM 44.8031 -93.8864 54° Northeast 322 371 10,000 -768 Descending Minneapolis Center
Thu 04:10:38 PM 44.8486 -93.7978 54° Northeast 281 323 9,100 -1,113 Descending Minneapolis Center
Thu 04:11:40 PM 44.8911 -93.7119 55° Northeast 267 307 7,700 -1,500 Descending Minneapolis Center
Thu 04:12:42 PM 44.9408 -93.6106 55° Northeast 260 299 6,000 -1,258 Descending Minneapolis Center
Thu 04:13:44 PM 44.9547 -93.5261 77° East 223 257 5,100 -774 Descending Minneapolis Center
Thu 04:14:46 PM 44.9500 -93.4500 95° East 195 224 4,400 -919 Descending Minneapolis Center
Thu 04:15:48 PM 44.9461 -93.3811 95° East 179 206 3,200 -1,016 Descending Minneapolis Center
Thu 04:16:50 PM 44.9278 -93.3239 114° Southeast 161 185 2,300 -774 Descending Minneapolis Center
Thu 04:17:52 PM 44.9053 -93.2742 123° Southeast 152 175 1,600 -677 Descending Minneapolis Center
Thu 04:19:00 PM 44.8820 -93.2218 90° East  Level Estimated
Thu 04:26:00 PM 44.8820 -93.2218 90° East  Level Estimated
Thu 04:27:00 PM 44.8820 -93.2218 90° East  Level Estimated

Login

Don't have an account? Register now (free) for customized features, flight alerts, and more!